05:34
Airports
History
Links
Donate
Help keep this website running!
PayPal
Bitcoin
Information on this page is community maintained and may be outdated or inaccurate and is intended for reference only or PC simulator navigating.
Always use approved charts for navigating.
VIJO
JODHPUR
JODHPUR (VIJO)
Jodhpur, Rajasthan, India (342011)
(C)
Lat/Lng:26° 15' 3.93" N / 73° 2' 55.93" E
26.251092 / 73.04887
Elevation:717'ft 219mMSL
ID / ICAO:VIJO
Runways:1
Longest:(05-23) 2,752.0m 9,029ft Asphalt
Controlled:Yes
Distance To
Airport ID:
Airport Radio Frequencies
Tower: 123.5
Approach: 122.7
Nearby VORs <50NM
Nearby NDBs
METARUpdated 05-30-17 04:30 GMT
Altimeter: 29.53
Visibility: 3.7 statute miles
Wind: 10 knots (260°)
Temp: 34°c 93°f
Humidity: 59.6%

METAR: VIJO 300430Z 26010G20KT 6000 SKC 34/25 Q1000 NOSIG

(Powered by phpweather)
Runway 05 / 23
Dimensions:2752 x 45.7m 9029' x 150'ft
Surface:Asphalt
Edge Lights:High intensity
Runway 05 [A]Runway 23 [B]
Heading:044°TH 224°TH
Lat:
Lng:
26° 14' 32.31"N
73° 2' 21.09"E
26° 15' 35.55"N
73° 3' 30.77"E
User Notes and Comments
Google Map
Nearby Airports
(U) PHALODI 72.1 NM
VA2A NW 325°
(U) NAGAUR 77.7 NM
VI73 NNE 31°
(U) SIROHI 94.5 NM
VA38 S 187°
(U) UTTARLAI 101.9 NM
VIUT WSW 252°
(U) ABU ROAD 122.5 NM
VA74 S 187°
(U) ONDWA 123.9 NM
VA1H SE 128°
(C) UDAIPUR 124.6 NM
VAUD SSE 154°
VFR Chart
Flight Planning at SkyVector.com